KPHD

Details ICAO KPHD (PHD)
Name HARRY CLEVER FLD
Region United States
Timezone America/New_York (UTC-4.0)
Plans Departing 3
Arriving 10
Stats Elevation 894 ft / 272 m (AMSL)
Location 40.469765° -81.420087°
Runways 2
Magnetic Variation 8.346° W
Sunrise 2018-05-23 10:04:04 UTC / 2018-05-23 06:04:04 Local
Sunset 2018-05-24 00:43:41 UTC / 2018-05-23 20:43:41 Local
Advertisement - Login to hide

Runways

ID Width Length Bearing (true) Bearing (mag) Surface Threshold Offset Overrun Length
11 98 ft / 30 m 2,052 ft / 625 m 108.34° 116.69° Grass 0 ft / 0 m 0 ft / 0 m
14 98 ft / 30 m 3,950 ft / 1,204 m 139.40° 147.75° Asphalt 322 ft / 98 m 0 ft / 0 m
29 98 ft / 30 m 2,052 ft / 625 m 288.35° 296.70° Grass 0 ft / 0 m 0 ft / 0 m
32 98 ft / 30 m 3,950 ft / 1,204 m 319.41° 327.76° Asphalt 0 ft / 0 m 0 ft / 0 m

Map

Weather


0- 5 10 15 20 25 30 35+ Temperature / ° C

Clouds and Precipitation
Forecast for 2018-05-23 18:00 UTC. Updated 2 hours ago

Ground ~20,000 ft ~40,000 ft Winds

METAR

KPHD 231853Z AUTO 00000KT 10SM FEW038 23/13 A3017 RMK AO2 SLP212 T02280128

TAF

Not found

Frequencies

Recorded 121.42 MHz ASOS
Approach 125.50 MHz AKRON CANTON APP/DEP
Unicom 122.80 MHz CTAF/UNICOM
Warning: Do not use this data for real-world aviation or navigation. No guarantee of current accuracy is given.